createdAt,value
2024-02-02T00:02:08.818Z,5.40
2024-02-02T00:04:35.868Z,5.40
2024-02-02T00:07:02.866Z,5.40
2024-02-02T00:09:29.819Z,5.40
2024-02-02T00:11:56.498Z,5.40
2024-02-02T00:14:23.451Z,5.40
2024-02-02T00:16:50.010Z,5.40
2024-02-02T00:19:16.568Z,5.40
2024-02-02T00:21:43.591Z,5.40
2024-02-02T00:24:10.165Z,5.40
2024-02-02T00:26:37.075Z,5.30
2024-02-02T00:29:03.936Z,5.40
2024-02-02T00:31:30.866Z,5.40
2024-02-02T00:33:57.526Z,5.40
2024-02-02T00:36:24.581Z,5.30
2024-02-02T00:38:51.873Z,5.40
2024-02-02T00:41:18.372Z,5.30
2024-02-02T00:43:45.286Z,5.30
2024-02-02T00:46:12.199Z,5.40
2024-02-02T00:48:39.817Z,5.30
2024-02-02T00:51:06.547Z,5.30
2024-02-02T00:53:33.130Z,5.30
2024-02-02T00:56:00.077Z,5.30
2024-02-02T00:58:26.638Z,5.30
2024-02-02T01:03:41.192Z,5.30
2024-02-02T01:06:08.210Z,5.30
2024-02-02T01:08:34.962Z,5.30
2024-02-02T01:11:03.838Z,5.30
2024-02-02T01:13:30.883Z,5.30
2024-02-02T01:15:58.051Z,5.20
2024-02-02T01:18:24.746Z,5.30
2024-02-02T01:20:51.842Z,5.20
2024-02-02T01:23:18.372Z,5.30
2024-02-02T01:25:44.872Z,5.30
2024-02-02T01:28:11.865Z,5.20
2024-02-02T01:30:38.758Z,5.20
2024-02-02T01:33:05.718Z,5.20
2024-02-02T01:35:32.798Z,5.20
2024-02-02T01:37:59.809Z,5.20
2024-02-02T01:40:26.292Z,5.10
2024-02-02T01:42:53.291Z,5.10
2024-02-02T01:45:20.114Z,5.10
2024-02-02T01:47:46.928Z,5.10
2024-02-02T01:50:14.018Z,5.10
2024-02-02T01:52:40.659Z,5.10
2024-02-02T01:55:07.889Z,5.10
2024-02-02T01:57:34.452Z,5.10
2024-02-02T02:00:03.423Z,5.10
2024-02-02T02:02:30.214Z,5.10
2024-02-02T02:04:57.362Z,5.10
2024-02-02T02:07:24.361Z,5.10
2024-02-02T02:09:51.355Z,5.10
2024-02-02T02:12:18.001Z,5.10
2024-02-02T02:14:45.023Z,5.10
2024-02-02T02:17:11.513Z,5.10
2024-02-02T02:19:39.590Z,5.10
2024-02-02T02:22:06.157Z,5.10
2024-02-02T02:24:33.270Z,5.20
2024-02-02T02:26:59.986Z,5.10
2024-02-02T02:29:26.950Z,5.20
2024-02-02T02:31:54.913Z,5.20
2024-02-02T02:34:28.628Z,5.20
2024-02-02T02:36:55.547Z,5.20
2024-02-02T02:39:22.126Z,5.20
2024-02-02T02:41:49.118Z,5.20
2024-02-02T02:44:15.685Z,5.20
2024-02-02T02:46:42.420Z,5.20
2024-02-02T02:49:09.581Z,5.20
2024-02-02T02:51:36.597Z,5.20
2024-02-02T02:54:03.167Z,5.20
2024-02-02T02:56:30.386Z,5.20
2024-02-02T02:58:56.887Z,5.20
2024-02-02T03:01:23.498Z,5.20
2024-02-02T03:03:50.511Z,5.30
2024-02-02T03:06:17.532Z,5.20
2024-02-02T03:08:44.142Z,5.30
2024-02-02T03:11:11.102Z,5.30
2024-02-02T03:13:38.049Z,5.30
2024-02-02T03:16:05.182Z,5.30
2024-02-02T03:18:31.816Z,5.30
2024-02-02T03:20:58.998Z,5.30
2024-02-02T03:23:25.609Z,5.30
2024-02-02T03:25:52.147Z,5.30
2024-02-02T03:28:19.066Z,5.40
2024-02-02T03:30:45.616Z,5.40
2024-02-02T03:33:12.622Z,5.40
2024-02-02T03:35:39.639Z,5.30
2024-02-02T03:38:06.130Z,5.40
2024-02-02T03:40:32.714Z,5.40
2024-02-02T03:42:59.940Z,5.40
2024-02-02T03:45:26.873Z,5.40
2024-02-02T03:47:53.965Z,5.40
2024-02-02T03:50:20.554Z,5.40
2024-02-02T03:52:47.518Z,5.40
2024-02-02T03:55:14.041Z,5.40
2024-02-02T03:57:40.972Z,5.40
2024-02-02T04:00:11.310Z,5.40
2024-02-02T04:02:38.072Z,5.40
2024-02-02T04:05:05.887Z,5.40
2024-02-02T04:07:32.443Z,5.40
2024-02-02T04:09:59.408Z,5.40
2024-02-02T04:12:26.175Z,5.40
2024-02-02T04:14:53.765Z,5.40
2024-02-02T04:17:20.703Z,5.40
2024-02-02T04:19:47.716Z,5.40
2024-02-02T04:22:17.833Z,5.40
2024-02-02T04:24:45.238Z,5.40
2024-02-02T04:27:11.836Z,5.40
2024-02-02T04:29:38.777Z,5.40
2024-02-02T04:32:05.367Z,5.40
2024-02-02T04:34:32.309Z,5.40
2024-02-02T04:36:59.425Z,5.40
2024-02-02T04:39:25.998Z,5.40
2024-02-02T04:41:52.983Z,5.30
2024-02-02T04:44:19.551Z,5.30
2024-02-02T04:46:46.485Z,5.30
2024-02-02T04:49:13.695Z,5.40
2024-02-02T04:51:40.369Z,5.40
2024-02-02T04:54:07.087Z,5.40
2024-02-02T04:56:34.150Z,5.40
2024-02-02T04:59:01.077Z,5.40
2024-02-02T05:01:27.634Z,5.40
2024-02-02T05:03:55.103Z,5.40
2024-02-02T05:06:23.836Z,5.40
2024-02-02T05:08:50.421Z,5.40
2024-02-02T05:11:16.988Z,5.40
2024-02-02T05:13:43.913Z,5.40
2024-02-02T05:16:12.735Z,5.30
2024-02-02T05:18:43.593Z,5.30
2024-02-02T05:21:10.552Z,5.40
2024-02-02T05:23:43.256Z,5.40
2024-02-02T05:26:14.535Z,5.40
2024-02-02T05:28:41.902Z,5.40
2024-02-02T05:31:08.831Z,5.40
2024-02-02T05:33:35.544Z,5.40
2024-02-02T05:36:02.835Z,5.40
2024-02-02T05:38:29.872Z,5.40
2024-02-02T05:40:56.809Z,5.40
2024-02-02T05:43:23.320Z,5.40
2024-02-02T05:45:50.357Z,5.40
2024-02-02T05:48:17.087Z,5.40
2024-02-02T05:50:45.295Z,5.40
2024-02-02T05:53:12.273Z,5.40
2024-02-02T05:55:38.855Z,5.40
2024-02-02T05:58:06.132Z,5.40
2024-02-02T06:00:32.739Z,5.40
2024-02-02T06:02:59.713Z,5.60
2024-02-02T06:05:26.264Z,5.40
2024-02-02T06:07:53.240Z,5.40
2024-02-02T06:10:19.741Z,5.40
2024-02-02T06:12:47.391Z,5.40
2024-02-02T06:15:14.397Z,5.40
2024-02-02T06:17:40.971Z,5.30
2024-02-02T06:20:08.457Z,5.30
2024-02-02T06:22:35.329Z,5.30
2024-02-02T06:25:02.012Z,5.30
2024-02-02T06:27:32.123Z,5.30
2024-02-02T06:30:03.958Z,5.30
2024-02-02T06:32:31.134Z,5.30
2024-02-02T06:35:00.483Z,5.30
2024-02-02T06:37:27.923Z,5.30
2024-02-02T06:39:56.296Z,5.30
2024-02-02T06:42:23.362Z,5.30
2024-02-02T06:44:52.269Z,5.20
2024-02-02T06:47:19.012Z,5.20
2024-02-02T06:49:46.005Z,5.20
2024-02-02T06:52:15.105Z,5.30
2024-02-02T06:54:44.976Z,5.20
2024-02-02T06:57:12.004Z,5.20
2024-02-02T06:59:39.064Z,5.10
2024-02-02T07:02:16.960Z,5.10
2024-02-02T07:04:43.552Z,5.10
2024-02-02T07:07:10.083Z,5.10
2024-02-02T07:09:37.265Z,5.10
2024-02-02T07:12:04.412Z,5.10
2024-02-02T07:14:33.986Z,5.10
2024-02-02T07:17:00.562Z,5.10
2024-02-02T07:19:41.357Z,5.10
2024-02-02T07:22:32.432Z,5.10
2024-02-02T07:24:58.980Z,5.10
2024-02-02T07:27:44.917Z,5.10
2024-02-02T07:30:13.102Z,5.10
2024-02-02T07:35:27.943Z,5.20
2024-02-02T07:37:54.565Z,5.20
2024-02-02T07:40:39.104Z,5.20
2024-02-02T07:43:05.673Z,5.20
2024-02-02T07:45:32.757Z,5.20
2024-02-02T07:48:00.479Z,5.20
2024-02-02T07:50:27.574Z,5.20
2024-02-02T07:52:56.524Z,5.20
2024-02-02T07:55:23.179Z,5.30
2024-02-02T07:57:49.819Z,5.30
2024-02-02T08:00:16.661Z,5.30
2024-02-02T08:02:43.573Z,5.40
2024-02-02T08:05:10.206Z,5.30
2024-02-02T08:07:36.722Z,5.40
2024-02-02T08:10:03.350Z,5.40
2024-02-02T08:12:30.384Z,5.40
2024-02-02T08:14:57.565Z,5.40
2024-02-02T08:17:24.103Z,5.50
2024-02-02T08:19:50.724Z,5.50
2024-02-02T08:22:17.276Z,5.50
2024-02-02T08:24:44.286Z,5.50
2024-02-02T08:27:10.832Z,5.50
2024-02-02T08:29:37.377Z,5.60
2024-02-02T08:32:06.289Z,5.60
2024-02-02T08:34:32.963Z,5.60
2024-02-02T08:37:03.838Z,5.60
2024-02-02T08:39:33.656Z,5.70
2024-02-02T08:42:01.111Z,5.70
2024-02-02T08:44:32.264Z,5.70
2024-02-02T08:46:58.817Z,5.70
2024-02-02T08:49:44.120Z,5.80
2024-02-02T08:52:22.771Z,5.80
2024-02-02T08:54:49.875Z,5.80
2024-02-02T08:57:24.892Z,5.80
2024-02-02T08:59:54.403Z,5.80
2024-02-02T09:02:44.007Z,5.80
2024-02-02T09:05:15.363Z,5.80
2024-02-02T09:07:42.345Z,5.80
2024-02-02T09:10:29.468Z,5.80
2024-02-02T09:13:00.725Z,5.80
2024-02-02T09:15:27.901Z,5.90
2024-02-02T09:17:55.448Z,5.90
2024-02-02T09:20:42.671Z,5.90
2024-02-02T09:23:09.742Z,6.00
2024-02-02T09:25:41.712Z,6.00
2024-02-02T09:28:28.297Z,6.00
2024-02-02T09:31:06.001Z,6.10
2024-02-02T09:33:33.073Z,6.10
2024-02-02T09:36:00.284Z,6.10
2024-02-02T09:38:27.694Z,6.20
2024-02-02T09:41:14.669Z,6.20
2024-02-02T09:44:04.037Z,6.20
2024-02-02T09:46:42.634Z,6.20
2024-02-02T09:49:12.378Z,6.20
2024-02-02T09:51:48.515Z,6.10
2024-02-02T09:54:21.301Z,6.20
2024-02-02T09:56:47.885Z,6.20
2024-02-02T09:59:26.553Z,6.20
2024-02-02T10:01:53.080Z,6.20
2024-02-02T10:04:38.484Z,6.20
2024-02-02T10:07:08.308Z,6.20
2024-02-02T10:09:58.915Z,6.20
2024-02-02T10:12:37.668Z,6.20
2024-02-02T10:15:22.524Z,6.30
2024-02-02T10:18:08.017Z,6.30
2024-02-02T10:20:44.883Z,6.30
2024-02-02T10:23:30.672Z,6.40
2024-02-02T10:26:16.432Z,6.40
2024-02-02T10:28:49.048Z,6.40
2024-02-02T10:31:16.001Z,6.40
2024-02-02T10:33:53.880Z,6.40
2024-02-02T10:36:44.309Z,6.40
2024-02-02T10:39:29.742Z,6.40
2024-02-02T10:42:00.502Z,6.40
2024-02-02T10:44:27.018Z,6.40
2024-02-02T10:46:56.657Z,6.40
2024-02-02T10:49:40.421Z,6.40
2024-02-02T10:52:16.655Z,6.40
2024-02-02T10:54:56.409Z,6.40
2024-02-02T10:57:29.574Z,6.50
2024-02-02T10:59:56.218Z,6.50
2024-02-02T11:02:38.215Z,6.50
2024-02-02T11:05:18.220Z,6.60
2024-02-02T11:07:51.480Z,6.60
2024-02-02T11:10:22.352Z,6.60
2024-02-02T11:12:48.841Z,6.60
2024-02-02T11:15:30.196Z,6.60
2024-02-02T11:18:02.962Z,6.50
2024-02-02T11:20:49.658Z,6.60
2024-02-02T11:23:25.901Z,6.60
2024-02-02T11:25:52.810Z,6.70
2024-02-02T11:28:24.434Z,6.70
2024-02-02T11:30:54.415Z,6.80
2024-02-02T11:33:21.567Z,6.80
2024-02-02T11:35:48.199Z,6.80
2024-02-02T11:38:33.182Z,6.90
2024-02-02T11:41:00.766Z,6.90
2024-02-02T11:43:28.789Z,6.90
2024-02-02T11:45:56.513Z,6.90
2024-02-02T11:48:29.033Z,6.90
2024-02-02T11:50:56.741Z,6.90
2024-02-02T11:53:44.144Z,6.90
2024-02-02T11:56:13.884Z,6.80
2024-02-02T11:58:43.149Z,6.80
2024-02-02T12:01:25.509Z,6.80
2024-02-02T12:04:00.140Z,6.80
2024-02-02T12:06:29.678Z,6.70
2024-02-02T12:09:13.181Z,6.70
2024-02-02T12:11:44.408Z,6.70
2024-02-02T12:14:27.365Z,6.80
2024-02-02T12:16:54.315Z,6.80
2024-02-02T12:19:21.015Z,6.80
2024-02-02T12:21:48.999Z,6.80
2024-02-02T12:24:18.435Z,6.80
2024-02-02T12:26:48.391Z,6.80
2024-02-02T12:29:18.884Z,6.90
2024-02-02T12:31:45.427Z,6.90
2024-02-02T12:34:13.272Z,6.80
2024-02-02T12:36:39.911Z,6.80
2024-02-02T12:39:07.118Z,6.90
2024-02-02T12:41:34.828Z,6.80
2024-02-02T12:44:02.135Z,6.90
2024-02-02T12:46:29.410Z,6.80
2024-02-02T12:48:57.286Z,6.80
2024-02-02T12:51:24.048Z,6.80
2024-02-02T12:53:51.551Z,6.80
2024-02-02T12:56:19.005Z,6.80
2024-02-02T12:59:03.416Z,6.80
2024-02-02T13:01:29.946Z,6.80
2024-02-02T13:03:56.931Z,6.80
2024-02-02T13:06:23.518Z,6.80
2024-02-02T13:08:50.520Z,6.80
2024-02-02T13:11:21.175Z,6.80
2024-02-02T13:13:47.983Z,6.90
2024-02-02T13:16:24.796Z,6.90
2024-02-02T13:18:51.993Z,6.90
2024-02-02T13:21:32.057Z,6.90
2024-02-02T13:23:59.932Z,7.00
2024-02-02T13:26:37.031Z,7.00
2024-02-02T13:29:08.522Z,6.90
2024-02-02T13:31:38.866Z,7.00
2024-02-02T13:34:06.649Z,7.00
2024-02-02T13:36:40.530Z,7.00
2024-02-02T13:39:07.894Z,7.00
2024-02-02T13:41:37.357Z,7.00
2024-02-02T13:44:05.747Z,7.00
2024-02-02T13:46:33.155Z,7.00
2024-02-02T13:49:02.124Z,7.00
2024-02-02T13:51:29.600Z,7.00
2024-02-02T13:53:56.986Z,7.10
2024-02-02T13:56:24.137Z,7.10
2024-02-02T13:58:50.705Z,7.10
2024-02-02T14:01:19.418Z,7.10
2024-02-02T14:03:47.503Z,7.10
2024-02-02T14:06:15.338Z,7.10
2024-02-02T14:08:41.892Z,7.10
2024-02-02T14:11:08.925Z,7.10
2024-02-02T14:13:35.452Z,7.10
2024-02-02T14:16:02.436Z,7.10
2024-02-02T14:18:30.233Z,7.10
2024-02-02T14:20:56.803Z,7.10
2024-02-02T14:26:12.531Z,7.10
2024-02-02T14:28:39.581Z,7.10
2024-02-02T14:31:07.144Z,7.10
2024-02-02T14:33:34.695Z,7.10
2024-02-02T14:36:03.128Z,7.20
2024-02-02T14:38:29.745Z,7.20
2024-02-02T14:40:56.824Z,7.20
2024-02-02T14:43:23.393Z,7.20
2024-02-02T14:45:50.743Z,7.70
2024-02-02T14:48:19.058Z,7.20
2024-02-02T14:50:45.826Z,7.20
2024-02-02T14:53:12.771Z,7.20
2024-02-02T14:55:39.331Z,7.20
2024-02-02T14:58:06.423Z,7.20
2024-02-02T15:00:33.497Z,7.20
2024-02-02T15:03:01.270Z,7.20
2024-02-02T15:05:28.291Z,7.20
2024-02-02T15:07:55.217Z,7.30
2024-02-02T15:10:22.599Z,7.20
2024-02-02T15:12:49.909Z,7.30
2024-02-02T15:15:16.593Z,7.30
2024-02-02T15:17:43.279Z,7.30
2024-02-02T15:20:11.694Z,7.30
2024-02-02T15:22:38.446Z,7.30
2024-02-02T15:25:06.226Z,7.30
2024-02-02T15:27:36.464Z,7.40
2024-02-02T15:30:05.806Z,7.30
2024-02-02T15:32:32.345Z,7.40
2024-02-02T15:34:59.032Z,7.30
2024-02-02T15:37:27.434Z,7.30
2024-02-02T15:40:01.377Z,7.30
2024-02-02T15:42:30.498Z,7.30
2024-02-02T15:44:59.250Z,7.30
2024-02-02T15:47:26.819Z,7.40
2024-02-02T15:49:54.355Z,7.40
2024-02-02T15:52:20.985Z,7.40
2024-02-02T15:54:47.941Z,8.40
2024-02-02T15:57:14.509Z,7.40
2024-02-02T15:59:41.365Z,7.40
2024-02-02T16:02:09.729Z,7.30
2024-02-02T16:04:36.533Z,7.30
2024-02-02T16:07:07.148Z,7.30
2024-02-02T16:09:41.514Z,7.40
2024-02-02T16:12:10.054Z,7.40
2024-02-02T16:14:36.991Z,7.40
2024-02-02T16:17:04.111Z,7.40
2024-02-02T16:19:30.855Z,7.40
2024-02-02T16:21:57.922Z,7.40
2024-02-02T16:24:24.983Z,7.40
2024-02-02T16:26:51.516Z,7.50
2024-02-02T16:29:18.897Z,7.40
2024-02-02T16:31:46.534Z,7.50
2024-02-02T16:34:13.680Z,7.50
2024-02-02T16:36:43.622Z,7.40
2024-02-02T16:39:15.309Z,7.50
2024-02-02T16:41:42.386Z,7.40
2024-02-02T16:44:08.951Z,7.50
2024-02-02T16:46:41.822Z,7.50
2024-02-02T16:49:09.432Z,7.50
2024-02-02T16:51:39.207Z,7.50
2024-02-02T16:54:09.457Z,7.50
2024-02-02T16:56:36.369Z,7.50
2024-02-02T16:59:03.431Z,7.50
2024-02-02T17:01:34.105Z,7.50
2024-02-02T17:04:01.529Z,7.50
2024-02-02T17:06:29.846Z,7.50
2024-02-02T17:08:56.641Z,7.50
2024-02-02T17:11:23.592Z,7.50
2024-02-02T17:13:50.083Z,7.50
2024-02-02T17:16:18.762Z,7.50
2024-02-02T17:18:45.408Z,7.50
2024-02-02T17:21:12.734Z,7.60
2024-02-02T17:23:39.281Z,7.60
2024-02-02T17:26:18.907Z,7.60
2024-02-02T17:28:45.644Z,7.60
2024-02-02T17:31:13.424Z,7.50
2024-02-02T17:33:40.396Z,7.60
2024-02-02T17:36:10.540Z,7.60
2024-02-02T17:38:37.515Z,7.60
2024-02-02T17:41:04.727Z,7.60
2024-02-02T17:43:31.711Z,7.60
2024-02-02T17:45:58.208Z,7.60
2024-02-02T17:48:24.831Z,7.60
2024-02-02T17:50:51.534Z,7.70
2024-02-02T17:53:18.518Z,7.70
2024-02-02T17:55:45.013Z,7.70
2024-02-02T17:58:11.988Z,7.80
2024-02-02T18:00:40.491Z,7.80
2024-02-02T18:03:07.530Z,7.80
2024-02-02T18:05:34.042Z,7.80
2024-02-02T18:08:01.074Z,7.90
2024-02-02T18:10:28.057Z,7.90
2024-02-02T18:12:54.995Z,7.90
2024-02-02T18:15:21.570Z,7.90
2024-02-02T18:17:48.146Z,8.00
2024-02-02T18:20:14.796Z,8.00
2024-02-02T18:22:41.842Z,8.00
2024-02-02T18:25:08.369Z,8.00
2024-02-02T18:27:35.385Z,8.00
2024-02-02T18:30:01.994Z,8.00
2024-02-02T18:32:29.022Z,8.00
2024-02-02T18:34:55.736Z,8.00
2024-02-02T18:37:22.315Z,8.00
2024-02-02T18:39:49.485Z,8.10
2024-02-02T18:42:16.079Z,8.10
2024-02-02T18:44:42.616Z,8.10
2024-02-02T18:47:09.142Z,8.10
2024-02-02T18:49:36.329Z,8.10
2024-02-02T18:52:02.989Z,8.10
2024-02-02T18:54:29.554Z,8.20
2024-02-02T18:56:56.528Z,8.20
2024-02-02T18:59:23.030Z,8.20
2024-02-02T19:01:49.541Z,8.20
2024-02-02T19:04:16.178Z,8.20
2024-02-02T19:06:42.894Z,8.10
2024-02-02T19:09:09.830Z,8.10
2024-02-02T19:11:37.091Z,8.10
2024-02-02T19:14:04.549Z,8.20
2024-02-02T19:16:31.579Z,8.20
2024-02-02T19:18:58.588Z,8.20
2024-02-02T19:21:30.897Z,8.20
2024-02-02T19:23:59.258Z,8.20
2024-02-02T19:26:25.877Z,8.10
2024-02-02T19:28:53.016Z,8.10
2024-02-02T19:31:24.144Z,8.10
2024-02-02T19:33:51.261Z,8.10
2024-02-02T19:36:26.983Z,8.10
2024-02-02T19:38:54.552Z,8.20
2024-02-02T19:41:22.152Z,8.20
2024-02-02T19:43:49.524Z,8.20
2024-02-02T19:46:20.137Z,8.20
2024-02-02T19:48:48.525Z,8.20
2024-02-02T19:51:16.083Z,8.20
2024-02-02T19:53:42.828Z,8.20
2024-02-02T19:56:09.917Z,8.20
2024-02-02T19:58:40.975Z,8.30
2024-02-02T20:01:11.955Z,8.30
2024-02-02T20:03:38.609Z,8.30
2024-02-02T20:06:05.452Z,8.30
2024-02-02T20:08:32.499Z,8.30
2024-02-02T20:10:59.007Z,8.30
2024-02-02T20:13:26.033Z,8.40
2024-02-02T20:15:52.753Z,8.30
2024-02-02T20:18:19.964Z,8.40
2024-02-02T20:20:46.892Z,8.40
2024-02-02T20:23:13.814Z,8.40
2024-02-02T20:25:40.355Z,8.40
2024-02-02T20:28:06.935Z,8.40
2024-02-02T20:30:33.946Z,8.40
2024-02-02T20:33:00.556Z,8.40
2024-02-02T20:35:27.158Z,8.40
2024-02-02T20:37:55.864Z,8.40
2024-02-02T20:40:25.371Z,8.40
2024-02-02T20:42:52.868Z,8.40
2024-02-02T20:45:20.490Z,8.40
2024-02-02T20:47:47.493Z,8.40
2024-02-02T20:50:14.068Z,8.40
2024-02-02T20:52:41.003Z,8.40
2024-02-02T20:55:09.420Z,8.40
2024-02-02T20:57:36.054Z,8.40
2024-02-02T21:00:03.136Z,8.40
2024-02-02T21:02:30.158Z,8.50
2024-02-02T21:04:58.466Z,8.40
2024-02-02T21:07:25.193Z,8.40
2024-02-02T21:09:52.196Z,8.40
2024-02-02T21:12:19.268Z,8.40
2024-02-02T21:14:46.090Z,8.40
2024-02-02T21:17:12.641Z,8.40
2024-02-02T21:19:41.262Z,8.40
2024-02-02T21:22:08.527Z,8.30
2024-02-02T21:24:37.450Z,8.30
2024-02-02T21:27:04.331Z,8.30
2024-02-02T21:29:30.956Z,8.30
2024-02-02T21:31:57.975Z,8.30
2024-02-02T21:34:25.172Z,8.40
2024-02-02T21:36:51.835Z,8.30
2024-02-02T21:39:18.843Z,8.30
2024-02-02T21:41:45.359Z,8.40
2024-02-02T21:44:12.031Z,8.40
2024-02-02T21:46:38.964Z,8.40
2024-02-02T21:49:08.106Z,8.40
2024-02-02T21:51:34.811Z,8.40
2024-02-02T21:54:01.876Z,8.40
2024-02-02T21:56:28.677Z,8.40
2024-02-02T21:58:58.530Z,8.40
2024-02-02T22:01:43.411Z,8.40
2024-02-02T22:04:13.620Z,8.40
2024-02-02T22:06:41.002Z,8.50
2024-02-02T22:09:09.314Z,8.50
2024-02-02T22:11:36.297Z,8.40
2024-02-02T22:14:02.911Z,8.50
2024-02-02T22:16:30.317Z,8.50
2024-02-02T22:18:59.248Z,8.50
2024-02-02T22:21:29.339Z,8.50
2024-02-02T22:23:56.448Z,8.50
2024-02-02T22:26:22.961Z,8.60
2024-02-02T22:28:49.990Z,8.60
2024-02-02T22:31:21.669Z,8.60
2024-02-02T22:33:48.934Z,8.60
2024-02-02T22:36:25.657Z,8.70
2024-02-02T22:38:56.458Z,8.70
2024-02-02T22:41:32.693Z,8.70
2024-02-02T22:44:02.439Z,8.70
2024-02-02T22:46:32.865Z,8.80
2024-02-02T22:49:00.071Z,8.80
2024-02-02T22:51:26.925Z,8.80
2024-02-02T22:53:53.960Z,8.80
2024-02-02T22:56:20.458Z,8.90
2024-02-02T22:58:47.448Z,8.90
2024-02-02T23:01:14.507Z,8.90
2024-02-02T23:03:41.793Z,8.90
2024-02-02T23:06:08.495Z,8.90
2024-02-02T23:08:35.582Z,9.00
2024-02-02T23:11:02.606Z,9.00
2024-02-02T23:13:29.733Z,9.00
2024-02-02T23:15:59.867Z,9.00
2024-02-02T23:18:27.591Z,9.00
2024-02-02T23:20:59.605Z,9.00
2024-02-02T23:23:26.568Z,9.00
2024-02-02T23:25:53.551Z,9.10
2024-02-02T23:28:20.102Z,9.10
2024-02-02T23:30:47.583Z,9.10
2024-02-02T23:33:14.462Z,9.10
2024-02-02T23:35:44.179Z,9.10
2024-02-02T23:38:11.114Z,9.10
2024-02-02T23:40:37.773Z,9.20
2024-02-02T23:43:05.150Z,9.10
2024-02-02T23:45:31.704Z,9.10
2024-02-02T23:47:58.422Z,9.20
2024-02-02T23:50:25.370Z,9.20
2024-02-02T23:52:51.971Z,9.20
2024-02-02T23:55:19.174Z,9.20
2024-02-02T23:57:45.774Z,9.20
